createdAt,value
2018-07-24T00:01:49.429Z,22.50
2018-07-24T00:04:17.812Z,22.50
2018-07-24T00:06:46.064Z,22.50
2018-07-24T00:09:15.090Z,22.70
2018-07-24T00:11:44.390Z,22.70
2018-07-24T00:14:12.642Z,22.70
2018-07-24T00:16:40.903Z,22.70
2018-07-24T00:19:09.924Z,22.70
2018-07-24T00:21:38.252Z,22.60
2018-07-24T00:24:06.566Z,22.70
2018-07-24T00:26:34.814Z,22.80
2018-07-24T00:29:03.836Z,22.80
2018-07-24T00:31:32.106Z,22.80
2018-07-24T00:34:00.358Z,22.70
2018-07-24T00:36:29.378Z,22.60
2018-07-24T00:38:57.969Z,22.60
2018-07-24T00:41:26.990Z,22.70
2018-07-24T00:43:55.248Z,22.60
2018-07-24T00:46:23.514Z,22.60
2018-07-24T00:48:51.799Z,22.60
2018-07-24T00:51:20.792Z,22.20
2018-07-24T00:53:49.053Z,22.20
2018-07-24T00:56:17.311Z,22.20
2018-07-24T00:58:45.577Z,22.30
2018-07-24T01:01:14.603Z,22.40
2018-07-24T01:03:42.879Z,22.30
2018-07-24T01:06:11.900Z,22.20
2018-07-24T01:08:40.234Z,22.30
2018-07-24T01:11:08.421Z,22.30
2018-07-24T01:13:36.679Z,22.20
2018-07-24T01:16:04.948Z,22.10
2018-07-24T01:18:33.195Z,22.10
2018-07-24T01:21:01.507Z,22.00
2018-07-24T01:23:29.774Z,21.90
2018-07-24T01:25:58.031Z,22.00
2018-07-24T01:28:27.042Z,22.10
2018-07-24T01:30:55.320Z,22.10
2018-07-24T01:33:23.597Z,22.20
2018-07-24T01:35:51.846Z,22.10
2018-07-24T01:38:20.870Z,22.20
2018-07-24T01:40:49.137Z,22.20
2018-07-24T01:43:17.389Z,22.20
2018-07-24T01:45:46.418Z,21.90
2018-07-24T01:48:14.901Z,21.90
2018-07-24T01:50:43.162Z,21.80
2018-07-24T01:53:11.439Z,21.70
2018-07-24T01:55:39.703Z,21.70
2018-07-24T01:58:08.739Z,21.90
2018-07-24T02:00:36.987Z,21.80
2018-07-24T02:03:05.506Z,22.00
2018-07-24T02:05:33.762Z,22.00
2018-07-24T02:08:02.022Z,21.80
2018-07-24T02:10:30.275Z,21.70
2018-07-24T02:12:58.537Z,21.70
2018-07-24T02:15:26.793Z,21.70
2018-07-24T02:17:55.058Z,21.60
2018-07-24T02:20:23.309Z,21.60
2018-07-24T02:22:51.578Z,21.50
2018-07-24T02:25:19.825Z,21.50
2018-07-24T02:27:48.101Z,21.40
2018-07-24T02:30:16.343Z,21.40
2018-07-24T02:32:44.618Z,21.40
2018-07-24T02:35:12.875Z,21.30
2018-07-24T02:37:41.133Z,21.30
2018-07-24T02:40:09.409Z,21.30
2018-07-24T02:42:37.654Z,21.20
2018-07-24T02:45:05.940Z,21.20
2018-07-24T02:47:34.183Z,21.20
2018-07-24T02:50:03.215Z,21.20
2018-07-24T02:52:31.483Z,21.20
2018-07-24T02:54:59.763Z,21.20
2018-07-24T02:57:28.043Z,21.20
2018-07-24T02:59:56.297Z,21.10
2018-07-24T03:02:24.572Z,21.20
2018-07-24T03:04:52.823Z,21.20
2018-07-24T03:07:21.848Z,21.20
2018-07-24T03:09:50.111Z,21.20
2018-07-24T03:12:18.419Z,21.20
2018-07-24T03:14:46.679Z,21.20
2018-07-24T03:17:14.942Z,21.40
2018-07-24T03:19:43.195Z,21.30
2018-07-24T03:22:12.227Z,21.20
2018-07-24T03:24:40.480Z,21.20
2018-07-24T03:27:08.749Z,21.20
2018-07-24T03:29:37.787Z,21.20
2018-07-24T03:32:06.050Z,21.20
2018-07-24T03:34:34.308Z,21.20
2018-07-24T03:37:03.005Z,21.20
2018-07-24T03:39:32.046Z,21.20
2018-07-24T03:42:00.291Z,21.20
2018-07-24T03:44:28.639Z,21.20
2018-07-24T03:46:56.891Z,21.20
2018-07-24T03:49:26.544Z,21.20
2018-07-24T03:51:54.803Z,21.20
2018-07-24T03:54:23.061Z,21.10
2018-07-24T03:56:51.317Z,21.10
2018-07-24T03:59:20.344Z,21.10
2018-07-24T04:01:48.623Z,21.10
2018-07-24T04:04:17.219Z,21.00
2018-07-24T04:06:45.478Z,21.00
2018-07-24T04:09:13.738Z,21.00
2018-07-24T04:11:42.011Z,21.00
2018-07-24T04:14:10.267Z,21.00
2018-07-24T04:16:39.301Z,21.00
2018-07-24T04:19:07.558Z,21.00
2018-07-24T04:21:35.833Z,20.90
2018-07-24T04:24:04.091Z,21.00
2018-07-24T04:26:32.358Z,21.10
2018-07-24T04:29:01.390Z,21.30
2018-07-24T04:31:29.666Z,21.20
2018-07-24T04:33:58.054Z,21.30
2018-07-24T04:36:26.310Z,21.40
2018-07-24T04:38:54.568Z,21.40
2018-07-24T04:41:23.608Z,21.50
2018-07-24T04:43:51.864Z,21.50
2018-07-24T04:46:20.125Z,21.50
2018-07-24T04:48:48.397Z,21.60
2018-07-24T04:51:16.653Z,21.50
2018-07-24T04:53:45.718Z,21.50
2018-07-24T04:56:13.977Z,21.50
2018-07-24T04:58:42.387Z,21.40
2018-07-24T05:01:10.638Z,21.30
2018-07-24T05:03:38.898Z,21.40
2018-07-24T05:06:07.272Z,21.40
2018-07-24T05:08:35.527Z,21.40
2018-07-24T05:11:03.790Z,21.50
2018-07-24T05:13:32.065Z,21.60
2018-07-24T05:16:01.094Z,21.70
2018-07-24T05:18:29.345Z,21.70
2018-07-24T05:20:57.602Z,21.70
2018-07-24T05:23:26.670Z,21.80
2018-07-24T05:25:54.928Z,21.90
2018-07-24T05:28:23.155Z,21.90
2018-07-24T05:30:51.433Z,22.00
2018-07-24T05:33:19.683Z,22.00
2018-07-24T05:35:48.981Z,22.10
2018-07-24T05:38:18.002Z,22.20
2018-07-24T05:40:46.254Z,22.10
2018-07-24T05:43:15.287Z,22.20
2018-07-24T05:45:43.558Z,22.20
2018-07-24T05:48:11.824Z,22.30
2018-07-24T05:50:40.087Z,22.40
2018-07-24T05:53:09.115Z,22.50
2018-07-24T05:55:37.354Z,22.50
2018-07-24T05:58:05.633Z,22.50
2018-07-24T06:00:33.888Z,22.60
2018-07-24T06:03:02.917Z,22.60
2018-07-24T06:05:31.170Z,22.60
2018-07-24T06:07:59.428Z,22.70
2018-07-24T06:10:28.454Z,22.80
2018-07-24T06:12:56.711Z,22.80
2018-07-24T06:15:24.975Z,22.90
2018-07-24T06:17:54.000Z,22.90
2018-07-24T06:20:22.274Z,22.90
2018-07-24T06:22:50.548Z,23.00
2018-07-24T06:25:18.791Z,23.00
2018-07-24T06:27:47.842Z,23.30
2018-07-24T06:30:16.135Z,23.30
2018-07-24T06:32:44.429Z,23.40
2018-07-24T06:35:13.462Z,23.60
2018-07-24T06:37:41.719Z,23.50
2018-07-24T06:40:10.741Z,23.70
2018-07-24T06:42:39.000Z,23.70
2018-07-24T06:45:07.310Z,23.80
2018-07-24T06:47:35.566Z,24.00
2018-07-24T06:50:03.840Z,24.20
2018-07-24T06:52:32.087Z,24.30
2018-07-24T06:55:01.130Z,24.50
2018-07-24T06:57:29.455Z,24.50
2018-07-24T06:59:58.465Z,24.90
2018-07-24T07:02:26.838Z,24.90
2018-07-24T07:04:55.194Z,25.10
2018-07-24T07:07:23.491Z,25.30
2018-07-24T07:09:51.757Z,25.30
2018-07-24T07:12:20.225Z,25.50
2018-07-24T07:14:48.464Z,25.60
2018-07-24T07:17:16.730Z,25.80
2018-07-24T07:19:45.051Z,26.00
2018-07-24T07:22:14.123Z,26.30
2018-07-24T07:24:42.373Z,26.30
2018-07-24T07:27:10.660Z,26.40
2018-07-24T07:29:38.919Z,26.60
2018-07-24T07:32:07.514Z,26.60
2018-07-24T07:34:36.513Z,26.80
2018-07-24T07:37:04.750Z,26.70
2018-07-24T07:39:38.640Z,26.80
2018-07-24T07:42:08.423Z,26.80
2018-07-24T07:44:36.738Z,26.90
2018-07-24T07:47:05.036Z,27.00
2018-07-24T07:49:33.298Z,27.20
2018-07-24T07:52:01.614Z,27.30
2018-07-24T07:54:29.875Z,27.40
2018-07-24T07:56:58.146Z,27.60
2018-07-24T07:59:26.412Z,27.70
2018-07-24T08:01:54.989Z,28.00
2018-07-24T08:04:23.276Z,28.10
2018-07-24T08:06:51.486Z,28.20
2018-07-24T08:09:20.537Z,28.40
2018-07-24T08:11:48.823Z,28.40
2018-07-24T08:14:17.417Z,28.50
2018-07-24T08:16:45.724Z,28.50
2018-07-24T08:19:14.758Z,28.70
2018-07-24T08:21:43.046Z,28.70
2018-07-24T08:24:11.311Z,28.70
2018-07-24T08:26:39.582Z,28.70
2018-07-24T08:29:07.889Z,28.80
2018-07-24T08:31:36.147Z,28.90
2018-07-24T08:34:04.423Z,29.00
2018-07-24T08:36:32.686Z,29.20
2018-07-24T08:39:00.955Z,29.40
2018-07-24T08:41:29.262Z,29.50
2018-07-24T08:43:57.558Z,29.50
2018-07-24T08:46:26.576Z,29.90
2018-07-24T08:48:54.829Z,29.90
2018-07-24T08:51:23.247Z,29.90
2018-07-24T08:53:51.867Z,29.80
2018-07-24T08:56:19.884Z,29.80
2018-07-24T08:58:48.202Z,29.80
2018-07-24T09:01:16.574Z,29.90
2018-07-24T09:03:44.828Z,30.00
2018-07-24T09:06:13.139Z,30.10
2018-07-24T09:08:41.399Z,30.20
2018-07-24T09:11:09.698Z,30.30
2018-07-24T09:13:37.964Z,30.20
2018-07-24T09:16:06.246Z,30.30
2018-07-24T09:18:34.519Z,30.40
2018-07-24T09:21:02.831Z,30.60
2018-07-24T09:23:31.067Z,30.70
2018-07-24T09:25:59.355Z,30.90
2018-07-24T09:28:27.615Z,31.00
2018-07-24T09:30:55.883Z,31.10
2018-07-24T09:33:24.131Z,31.00
2018-07-24T09:35:53.167Z,31.30
2018-07-24T09:38:21.485Z,31.30
2018-07-24T09:40:49.810Z,31.40
2018-07-24T09:43:18.221Z,31.50
2018-07-24T09:45:47.331Z,31.60
2018-07-24T09:48:16.365Z,31.70
2018-07-24T09:50:44.632Z,31.60
2018-07-24T09:53:12.880Z,31.80
2018-07-24T09:55:41.143Z,31.80
2018-07-24T09:58:10.170Z,31.90
2018-07-24T10:00:39.031Z,31.80
2018-07-24T10:03:07.302Z,31.90
2018-07-24T10:05:35.693Z,31.90
2018-07-24T10:08:03.938Z,32.00
2018-07-24T10:10:32.946Z,32.10
2018-07-24T10:13:01.337Z,32.10
2018-07-24T10:15:29.467Z,32.10
2018-07-24T10:17:57.772Z,32.30
2018-07-24T10:20:26.040Z,32.30
2018-07-24T10:22:55.217Z,32.30
2018-07-24T10:25:23.478Z,32.30
2018-07-24T10:27:51.772Z,32.20
2018-07-24T10:30:20.090Z,32.40
2018-07-24T10:32:49.091Z,32.50
2018-07-24T10:35:17.384Z,32.40
2018-07-24T10:37:45.634Z,32.50
2018-07-24T10:40:13.878Z,32.60
2018-07-24T10:42:42.904Z,32.70
2018-07-24T10:45:11.191Z,32.70
2018-07-24T10:47:39.516Z,32.90
2018-07-24T10:50:08.540Z,33.00
2018-07-24T10:52:36.797Z,32.90
2018-07-24T10:55:05.858Z,33.00
2018-07-24T10:57:34.286Z,32.90
2018-07-24T11:00:03.297Z,33.10
2018-07-24T11:02:31.508Z,33.10
2018-07-24T11:04:59.875Z,33.10
2018-07-24T11:07:28.103Z,33.10
2018-07-24T11:09:56.475Z,33.10
2018-07-24T11:12:24.726Z,33.10
2018-07-24T11:14:53.274Z,33.00
2018-07-24T11:17:21.533Z,33.00
2018-07-24T11:19:49.775Z,33.10
2018-07-24T11:22:18.201Z,33.10
2018-07-24T11:24:46.387Z,33.10
2018-07-24T11:27:14.932Z,33.10
2018-07-24T11:29:43.218Z,33.40
2018-07-24T11:32:11.470Z,33.50
2018-07-24T11:34:39.968Z,33.60
2018-07-24T11:37:08.206Z,33.70
2018-07-24T11:39:37.221Z,34.00
2018-07-24T11:42:05.507Z,34.00
2018-07-24T11:44:33.783Z,34.10
2018-07-24T11:47:02.048Z,34.30
2018-07-24T11:49:30.424Z,34.10
2018-07-24T11:51:58.683Z,33.90
2018-07-24T11:54:27.679Z,33.70
2018-07-24T11:56:55.997Z,33.70
2018-07-24T11:59:24.244Z,33.80
2018-07-24T12:01:52.513Z,33.90
2018-07-24T12:04:21.547Z,34.00
2018-07-24T12:06:49.808Z,34.00
2018-07-24T12:09:18.086Z,34.00
2018-07-24T12:11:46.339Z,34.00
2018-07-24T12:14:14.602Z,34.20
2018-07-24T12:16:42.934Z,34.40
2018-07-24T12:19:11.198Z,34.40
2018-07-24T12:21:39.451Z,34.10
2018-07-24T12:24:07.718Z,34.00
2018-07-24T12:26:36.110Z,33.90
2018-07-24T12:29:04.364Z,34.00
2018-07-24T12:31:32.613Z,34.00
2018-07-24T12:34:01.660Z,34.30
2018-07-24T12:36:29.948Z,34.40
2018-07-24T12:38:58.200Z,34.40
2018-07-24T12:41:26.597Z,34.60
2018-07-24T12:43:54.840Z,34.80
2018-07-24T12:46:23.122Z,34.90
2018-07-24T12:48:51.751Z,34.80
2018-07-24T12:51:20.214Z,34.80
2018-07-24T12:53:48.448Z,34.80
2018-07-24T12:56:16.723Z,34.80
2018-07-24T12:58:44.988Z,34.80
2018-07-24T13:01:13.254Z,34.90
2018-07-24T13:03:42.265Z,34.70
2018-07-24T13:06:10.557Z,34.70
2018-07-24T13:08:38.813Z,34.70
2018-07-24T13:11:07.265Z,34.80
2018-07-24T13:13:35.547Z,35.00
2018-07-24T13:16:03.763Z,35.00
2018-07-24T13:18:32.031Z,35.10
2018-07-24T13:21:00.300Z,35.10
2018-07-24T13:23:28.582Z,35.10
2018-07-24T13:25:56.834Z,35.20
2018-07-24T13:28:25.089Z,35.20
2018-07-24T13:30:54.110Z,35.10
2018-07-24T13:33:22.372Z,35.00
2018-07-24T13:35:50.650Z,35.10
2018-07-24T13:38:18.923Z,35.20
2018-07-24T13:40:47.923Z,35.40
2018-07-24T13:43:16.212Z,35.40
2018-07-24T13:45:44.463Z,35.10
2018-07-24T13:48:12.754Z,35.00
2018-07-24T13:50:41.021Z,35.10
2018-07-24T13:53:09.332Z,35.10
2018-07-24T13:55:37.822Z,35.20
2018-07-24T13:58:06.066Z,35.10
2018-07-24T14:00:34.379Z,35.10
2018-07-24T14:03:02.655Z,35.20
2018-07-24T14:05:30.915Z,35.20
2018-07-24T14:07:59.175Z,35.30
2018-07-24T14:10:27.464Z,35.50
2018-07-24T14:12:55.743Z,35.50
2018-07-24T14:15:24.016Z,35.60
2018-07-24T14:17:52.332Z,35.70
2018-07-24T14:20:20.570Z,35.80
2018-07-24T14:22:48.847Z,35.90
2018-07-24T14:25:17.156Z,35.90
2018-07-24T14:27:45.406Z,35.70
2018-07-24T14:30:13.683Z,35.70
2018-07-24T14:32:42.145Z,35.60
2018-07-24T14:35:10.406Z,35.70
2018-07-24T14:37:38.659Z,35.70
2018-07-24T14:40:06.935Z,35.70
2018-07-24T14:42:36.006Z,35.30
2018-07-24T14:45:05.054Z,35.20
2018-07-24T14:47:33.306Z,35.20
2018-07-24T14:50:01.544Z,35.20
2018-07-24T14:52:30.179Z,35.20
2018-07-24T14:54:58.521Z,35.30
2018-07-24T14:57:26.814Z,35.40
2018-07-24T14:59:55.885Z,35.40
2018-07-24T15:02:24.938Z,35.30
2018-07-24T15:04:53.202Z,35.30
2018-07-24T15:07:21.451Z,35.20
2018-07-24T15:09:49.823Z,35.20
2018-07-24T15:12:18.082Z,35.30
2018-07-24T15:14:47.104Z,35.20
2018-07-24T15:17:15.367Z,35.20
2018-07-24T15:19:43.656Z,35.20
2018-07-24T15:22:12.025Z,35.20
2018-07-24T15:24:40.267Z,35.10
2018-07-24T15:27:09.318Z,35.30
2018-07-24T15:29:37.675Z,35.30
2018-07-24T15:32:05.943Z,35.40
2018-07-24T15:34:34.367Z,35.40
2018-07-24T15:37:03.264Z,35.50
2018-07-24T15:39:31.513Z,35.50
2018-07-24T15:41:59.777Z,35.30
2018-07-24T15:44:28.047Z,35.30
2018-07-24T15:46:56.405Z,35.30
2018-07-24T15:49:24.601Z,35.30
2018-07-24T15:51:52.915Z,35.20
2018-07-24T15:54:21.213Z,35.20
2018-07-24T15:56:49.518Z,35.10
2018-07-24T15:59:17.785Z,35.20
2018-07-24T16:01:46.074Z,35.20
2018-07-24T16:04:14.345Z,35.20
2018-07-24T16:06:42.584Z,35.20
2018-07-24T16:09:11.639Z,35.00
2018-07-24T16:11:39.877Z,35.00
2018-07-24T16:14:08.224Z,35.00
2018-07-24T16:16:36.588Z,35.00
2018-07-24T16:19:04.950Z,35.00
2018-07-24T16:21:33.164Z,35.00
2018-07-24T16:24:02.213Z,35.20
2018-07-24T16:26:30.469Z,35.20
2018-07-24T16:28:58.774Z,35.20
2018-07-24T16:31:27.069Z,35.20
2018-07-24T16:33:55.379Z,35.10
2018-07-24T16:36:23.710Z,35.10
2018-07-24T16:38:51.976Z,34.90
2018-07-24T16:41:20.289Z,34.60
2018-07-24T16:43:48.527Z,34.60
2018-07-24T16:46:16.784Z,34.40
2018-07-24T16:48:45.054Z,34.30
2018-07-24T16:51:13.319Z,34.40
2018-07-24T16:53:41.668Z,34.50
2018-07-24T16:56:10.051Z,34.50
2018-07-24T16:58:38.299Z,34.40
2018-07-24T17:01:06.521Z,34.40
2018-07-24T17:03:34.814Z,34.30
2018-07-24T17:06:03.057Z,34.30
2018-07-24T17:08:31.318Z,34.20
2018-07-24T17:11:00.351Z,34.30
2018-07-24T17:13:28.623Z,34.30
2018-07-24T17:15:56.870Z,34.30
2018-07-24T17:18:25.127Z,34.30
2018-07-24T17:20:54.163Z,34.20
2018-07-24T17:23:22.438Z,34.20
2018-07-24T17:25:50.693Z,34.20
2018-07-24T17:28:19.728Z,34.20
2018-07-24T17:30:48.038Z,34.20
2018-07-24T17:33:16.262Z,34.10
2018-07-24T17:35:44.644Z,34.00
2018-07-24T17:38:12.838Z,33.90
2018-07-24T17:40:41.074Z,33.80
2018-07-24T17:43:09.385Z,33.80
2018-07-24T17:45:38.389Z,33.70
2018-07-24T17:48:07.512Z,33.60
2018-07-24T17:50:35.749Z,33.60
2018-07-24T17:53:04.032Z,33.50
2018-07-24T17:55:32.314Z,33.40
2018-07-24T17:58:00.682Z,33.40
2018-07-24T18:00:28.999Z,33.30
2018-07-24T18:02:57.341Z,33.20
2018-07-24T18:05:25.606Z,33.20
2018-07-24T18:07:53.884Z,33.10
2018-07-24T18:10:22.098Z,33.10
2018-07-24T18:12:50.368Z,33.00
2018-07-24T18:15:19.407Z,32.80
2018-07-24T18:17:47.647Z,32.80
2018-07-24T18:20:15.916Z,32.70
2018-07-24T18:22:44.950Z,32.40
2018-07-24T18:25:13.541Z,32.40
2018-07-24T18:27:41.897Z,32.40
2018-07-24T18:30:10.971Z,32.00
2018-07-24T18:32:39.301Z,32.00
2018-07-24T18:35:07.878Z,31.90
2018-07-24T18:37:36.282Z,31.60
2018-07-24T18:40:04.536Z,31.50
2018-07-24T18:42:33.870Z,31.30
2018-07-24T18:45:02.904Z,31.00
2018-07-24T18:47:31.188Z,30.90
2018-07-24T18:49:59.568Z,30.80
2018-07-24T18:52:27.822Z,30.70
2018-07-24T18:54:56.060Z,30.60
2018-07-24T18:57:25.192Z,30.40
2018-07-24T18:59:53.415Z,30.50
2018-07-24T19:02:22.004Z,30.30
2018-07-24T19:04:50.298Z,30.10
2018-07-24T19:07:18.637Z,30.00
2018-07-24T19:09:46.944Z,29.90
2018-07-24T19:12:15.997Z,29.60
2018-07-24T19:14:44.327Z,29.50
2018-07-24T19:17:12.603Z,29.50
2018-07-24T19:19:41.780Z,29.50
2018-07-24T19:22:11.694Z,29.30
2018-07-24T19:24:40.743Z,29.30
2018-07-24T19:27:09.011Z,29.30
2018-07-24T19:29:38.110Z,29.10
2018-07-24T19:32:06.463Z,29.10
2018-07-24T19:34:34.920Z,28.90
2018-07-24T19:37:03.959Z,28.50
2018-07-24T19:39:32.273Z,28.50
2018-07-24T19:42:00.741Z,28.40
2018-07-24T19:44:29.041Z,28.30
2018-07-24T19:46:58.084Z,28.00
2018-07-24T19:49:26.433Z,28.00
2018-07-24T19:51:54.715Z,28.00
2018-07-24T19:54:23.009Z,28.00
2018-07-24T19:56:51.294Z,27.90
2018-07-24T19:59:19.569Z,27.90
2018-07-24T20:01:47.854Z,27.90
2018-07-24T20:04:16.126Z,27.90
2018-07-24T20:06:44.427Z,27.90
2018-07-24T20:09:12.697Z,27.70
2018-07-24T20:11:40.971Z,27.80
2018-07-24T20:14:09.258Z,27.80
2018-07-24T20:16:38.358Z,27.60
2018-07-24T20:19:07.369Z,27.40
2018-07-24T20:21:35.647Z,27.40
2018-07-24T20:24:03.935Z,27.30
2018-07-24T20:26:32.237Z,27.20
2018-07-24T20:29:00.519Z,27.00
2018-07-24T20:31:28.764Z,26.90
2018-07-24T20:33:57.090Z,26.90
2018-07-24T20:36:25.366Z,26.90
2018-07-24T20:38:53.646Z,26.90
2018-07-24T20:41:22.682Z,26.90
2018-07-24T20:43:50.968Z,26.90
2018-07-24T20:46:19.247Z,26.80
2018-07-24T20:48:48.265Z,26.80
2018-07-24T20:51:16.994Z,26.80
2018-07-24T20:53:46.026Z,26.80
2018-07-24T20:56:14.281Z,26.80
2018-07-24T20:58:42.546Z,26.80
2018-07-24T21:01:10.813Z,26.80
2018-07-24T21:03:39.052Z,26.70
2018-07-24T21:06:08.112Z,26.40
2018-07-24T21:08:36.362Z,26.40
2018-07-24T21:11:04.669Z,26.40
2018-07-24T21:13:32.899Z,26.30
2018-07-24T21:16:01.147Z,26.30
2018-07-24T21:18:29.486Z,26.30
2018-07-24T21:20:57.797Z,26.10
2018-07-24T21:23:26.001Z,25.80
2018-07-24T21:25:54.265Z,25.90
2018-07-24T21:28:23.297Z,26.30
2018-07-24T21:30:51.618Z,26.30
2018-07-24T21:33:19.849Z,26.30
2018-07-24T21:35:48.102Z,26.20
2018-07-24T21:38:16.346Z,26.10
2018-07-24T21:40:45.438Z,26.00
2018-07-24T21:43:14.441Z,25.90
2018-07-24T21:45:43.456Z,25.90
2018-07-24T21:48:11.733Z,25.90
2018-07-24T21:50:40.032Z,26.20
2018-07-24T21:53:08.286Z,26.10
2018-07-24T21:55:36.522Z,25.80
2018-07-24T21:58:05.561Z,25.60
2018-07-24T22:00:34.085Z,25.60
2018-07-24T22:03:02.329Z,25.50
2018-07-24T22:05:30.589Z,25.60
2018-07-24T22:07:58.867Z,25.70
2018-07-24T22:10:27.134Z,25.80
2018-07-24T22:12:55.439Z,25.80
2018-07-24T22:15:23.675Z,25.60
2018-07-24T22:17:51.954Z,25.50
2018-07-24T22:20:20.223Z,25.40
2018-07-24T22:22:48.527Z,25.40
2018-07-24T22:25:16.768Z,25.30
2018-07-24T22:27:45.040Z,25.20
2018-07-24T22:30:13.296Z,25.10
2018-07-24T22:32:42.342Z,25.10
2018-07-24T22:35:10.575Z,25.10
2018-07-24T22:37:39.603Z,25.30
2018-07-24T22:40:07.863Z,25.20
2018-07-24T22:42:36.129Z,25.30
2018-07-24T22:45:04.402Z,25.20
2018-07-24T22:47:32.671Z,25.20
2018-07-24T22:50:01.686Z,25.00
2018-07-24T22:52:29.933Z,25.00
2018-07-24T22:54:59.015Z,25.00
2018-07-24T22:57:27.268Z,25.00
2018-07-24T22:59:55.616Z,25.00
2018-07-24T23:02:23.868Z,24.80
2018-07-24T23:04:52.411Z,24.80
2018-07-24T23:07:20.697Z,24.70
2018-07-24T23:09:48.954Z,24.60
2018-07-24T23:12:17.238Z,24.60
2018-07-24T23:14:46.319Z,24.60
2018-07-24T23:17:14.566Z,24.60
2018-07-24T23:19:42.803Z,24.60
2018-07-24T23:22:11.852Z,24.40
2018-07-24T23:24:40.178Z,24.40
2018-07-24T23:27:09.246Z,24.50
2018-07-24T23:29:38.222Z,24.50
2018-07-24T23:32:06.594Z,24.50
2018-07-24T23:34:34.839Z,24.40
2018-07-24T23:39:38.565Z,24.30
2018-07-24T23:42:06.851Z,24.30
2018-07-24T23:44:35.095Z,24.30
2018-07-24T23:47:03.380Z,24.30
2018-07-24T23:49:31.617Z,24.30
2018-07-24T23:51:59.873Z,24.20
2018-07-24T23:54:28.151Z,24.20
2018-07-24T23:56:56.389Z,24.10
2018-07-24T23:59:24.674Z,24.20
